Time;durP1;ratioP1;P1;durP2;ratioP2;P2;SDS_P1;SDS_P2;PMS_P1;PMS_P2;Temp;Humidity;BMP_temperature;BMP_pressure;BME280_temperature;BME280_humidity;BME280_pressure;Samples;Min_cycle;Max_cycle;Signal;HPM_P1;HPM_P2
2022/02/16 00:01:22;;;;;;;18.80;8.60;;;;;1.50;97603.80;;;;110529;1252;41936;-62
2022/02/16 00:03:53;;;;;;;16.50;8.40;;;;;1.50;97605.60;;;;110602;1253;42067;-59
2022/02/16 00:06:23;;;;;;;17.30;8.40;;;;;1.44;97604.80;;;;110709;1250;41317;-58
2022/02/16 00:08:54;;;;;;;;;;;;;1.40;97606.80;;;;110725;1250;41145;-58
2022/02/16 00:11:23;;;;;;;15.30;7.70;;;;;1.40;97604.80;;;;110591;1253;41733;-59
2022/02/16 00:13:56;;;;;;;18.90;8.90;;;;;1.40;97605.20;;;;110565;1253;41146;-57
2022/02/16 00:16:26;;;;;;;15.50;7.20;;;;;1.30;97610.40;;;;110813;1250;41183;-57
2022/02/16 00:18:55;;;;;;;16.90;7.80;;;;;1.30;97608.00;;;;110709;1250;41257;-64
2022/02/16 00:21:26;;;;;;;19.70;8.30;;;;;1.24;97604.20;;;;110574;1252;42085;-59
2022/02/16 00:23:58;;;;;;;19.30;8.20;;;;;1.20;97605.40;;;;110621;1253;41266;-64
2022/02/16 00:26:27;;;;;;;15.80;7.30;;;;;1.20;97602.80;;;;110811;1250;41143;-60
2022/02/16 00:28:59;;;;;;;16.70;7.90;;;;;1.16;97594.60;;;;110761;1250;41426;-65
2022/02/16 00:31:29;;;;;;;17.50;7.70;;;;;1.12;97594.40;;;;110584;1253;41950;-61
2022/02/16 00:34:00;;;;;;;15.10;6.80;;;;;1.10;97599.60;;;;110577;1252;41160;-59
2022/02/16 00:36:30;;;;;;;17.00;6.60;;;;;1.10;97605.80;;;;110500;1253;41937;-58
2022/02/16 00:39:00;;;;;;;15.10;6.70;;;;;1.10;97600.60;;;;110511;1252;41152;-60
2022/02/16 00:41:30;;;;;;;13.60;6.50;;;;;1.10;97593.00;;;;110621;1251;41138;-58
2022/02/16 00:43:59;;;;;;;17.10;7.80;;;;;1.10;97594.00;;;;110492;1253;42429;-58
2022/02/16 00:46:29;;;;;;;18.30;7.80;;;;;1.10;97586.20;;;;110522;1250;41315;-61
2022/02/16 00:48:59;;;;;;;16.70;6.80;;;;;1.10;97580.80;;;;110758;1250;41311;-62
2022/02/16 00:51:30;;;;;;;17.50;8.20;;;;;1.14;97586.00;;;;110778;1250;41162;-63
2022/02/16 00:54:00;;;;;;;19.80;9.50;;;;;1.18;97582.40;;;;110660;1252;41615;-61
2022/02/16 00:56:33;;;;;;;18.70;8.80;;;;;1.12;97576.00;;;;110663;1252;42142;-62
2022/02/16 00:59:03;;;;;;;17.70;8.30;;;;;1.12;97578.40;;;;110790;1250;41393;-61
2022/02/16 01:01:33;;;;;;;19.40;8.20;;;;;1.10;97578.20;;;;110474;1250;41390;-60
2022/02/16 01:04:04;;;;;;;16.30;7.80;;;;;1.10;97575.20;;;;110800;1248;41144;-63
2022/02/16 01:06:33;;;;;;;17.90;7.70;;;;;1.10;97577.00;;;;110485;1253;41722;-57
2022/02/16 01:09:03;;;;;;;16.40;7.50;;;;;1.10;97579.40;;;;110662;1251;41277;-58
2022/02/16 01:11:34;;;;;;;19.80;7.70;;;;;1.04;97576.40;;;;110456;1253;41278;-56
2022/02/16 01:14:05;;;;;;;15.90;7.70;;;;;1.00;97581.60;;;;110467;1253;41672;-57
2022/02/16 01:16:38;;;;;;;16.40;7.40;;;;;1.00;97575.60;;;;110597;1253;41644;-61
2022/02/16 01:19:14;;;;;;;14.40;7.20;;;;;1.06;97567.40;;;;110765;1250;41614;-61
2022/02/16 01:21:44;;;;;;;15.90;7.20;;;;;1.10;97567.80;;;;110586;1253;41152;-57
2022/02/16 01:24:14;;;;;;;15.50;6.80;;;;;1.10;97561.80;;;;110573;1253;41616;-56
2022/02/16 01:26:45;;;;;;;15.60;7.50;;;;;1.10;97566.20;;;;110648;1250;41156;-61
2022/02/16 01:29:18;;;;;;;15.90;7.80;;;;;1.10;97565.80;;;;110575;1253;41268;-61
2022/02/16 01:31:56;;;;;;;19.70;8.40;;;;;1.10;97563.20;;;;110773;1250;41292;-57
2022/02/16 01:34:26;;;;;;;19.10;7.80;;;;;1.10;97561.60;;;;110561;1252;41154;-58
2022/02/16 01:36:57;;;;;;;19.60;7.80;;;;;1.12;97559.40;;;;110828;1250;41170;-58
2022/02/16 01:39:27;;;;;;;15.80;7.90;;;;;1.10;97556.20;;;;110664;1253;41149;-57
2022/02/16 01:41:57;;;;;;;18.50;7.60;;;;;1.10;97559.00;;;;110570;1253;41614;-57
2022/02/16 01:44:27;;;;;;;16.10;7.90;;;;;1.10;97548.80;;;;110518;1251;41635;-57
2022/02/16 01:47:05;;;;;;;16.30;7.30;;;;;1.10;97547.60;;;;110322;1250;42173;-65
2022/02/16 01:49:40;;;;;;;16.30;6.70;;;;;1.10;97546.40;;;;110539;1250;41266;-63
2022/02/16 01:52:11;;;;;;;16.00;6.90;;;;;1.10;97542.20;;;;110457;1252;41153;-63
2022/02/16 01:54:46;;;;;;;16.40;7.70;;;;;1.10;97546.60;;;;110689;1251;42156;-61
2022/02/16 01:57:16;;;;;;;15.50;7.50;;;;;1.10;97546.20;;;;110790;1251;42290;-59
2022/02/16 01:59:50;;;;;;;16.50;7.30;;;;;1.10;97543.60;;;;110555;1253;41279;-58
2022/02/16 02:02:39;;;;;;;14.20;6.60;;;;;1.10;97544.40;;;;110758;1252;41281;-59
2022/02/16 02:05:29;;;;;;;14.60;6.80;;;;;1.06;97544.60;;;;110729;1252;41829;-60
2022/02/16 02:08:02;;;;;;;16.60;6.40;;;;;1.08;97541.00;;;;110559;1250;41298;-61
2022/02/16 02:10:33;;;;;;;14.30;6.50;;;;;1.10;97541.20;;;;110600;1250;41152;-61
2022/02/16 02:13:04;;;;;;;15.30;6.50;;;;;1.10;97532.40;;;;110570;1252;41143;-60
2022/02/16 02:15:54;;;;;;;16.20;6.90;;;;;1.10;97527.60;;;;110715;1250;41264;-62
2022/02/16 02:18:36;;;;;;;16.60;6.90;;;;;1.10;97530.00;;;;110777;1250;41300;-59
2022/02/16 02:21:06;;;;;;;14.80;6.30;;;;;1.10;97530.40;;;;110706;1252;42021;-61
2022/02/16 02:23:36;;;;;;;16.10;7.40;;;;;1.10;97525.20;;;;110486;1253;41248;-61
2022/02/16 02:26:08;;;;;;;14.70;6.40;;;;;1.10;97522.60;;;;110466;1253;41280;-62
2022/02/16 02:28:39;;;;;;;18.70;8.00;;;;;1.00;97524.60;;;;110756;1250;41258;-62
2022/02/16 02:31:09;;;;;;;18.10;8.40;;;;;1.00;97521.20;;;;110567;1253;42388;-63
2022/02/16 02:33:39;;;;;;;14.90;7.20;;;;;1.00;97523.60;;;;110750;1250;41142;-56
2022/02/16 02:36:09;;;;;;;18.50;8.90;;;;;0.90;97526.00;;;;110554;1250;41151;-57
2022/02/16 02:38:40;;;;;;;19.30;8.90;;;;;0.90;97533.20;;;;110548;1250;41257;-56
2022/02/16 02:41:10;;;;;;;19.80;8.90;;;;;0.88;97528.20;;;;110547;1250;42198;-58
2022/02/16 02:43:43;;;;;;;15.80;7.50;;;;;0.80;97522.20;;;;110386;1250;507324;-58
2022/02/16 02:46:15;;;;;;;16.10;7.60;;;;;0.80;97523.20;;;;110656;1252;41387;-59
2022/02/16 02:48:52;;;;;;;19.30;7.30;;;;;0.80;97521.60;;;;110470;1253;41277;-57
2022/02/16 02:51:23;;;;;;;14.10;6.70;;;;;0.78;97514.60;;;;110726;1253;41535;-62
2022/02/16 02:53:55;;;;;;;14.70;6.70;;;;;0.74;97500.00;;;;110570;1253;41606;-61
2022/02/16 02:56:29;;;;;;;15.50;7.20;;;;;0.80;97499.20;;;;110505;1250;41260;-61
2022/02/16 02:59:00;;;;;;;14.30;6.00;;;;;0.80;97498.00;;;;110582;1250;42720;-57
2022/02/16 03:01:30;;;;;;;14.50;6.20;;;;;0.80;97504.00;;;;110557;1253;41518;-60
2022/02/16 03:04:01;;;;;;;14.40;6.70;;;;;0.80;97500.40;;;;110278;1253;41728;-60
2022/02/16 03:06:34;;;;;;;17.20;6.70;;;;;0.76;97504.00;;;;110750;1250;41319;-60
2022/02/16 03:09:06;;;;;;;14.70;6.70;;;;;0.76;97511.00;;;;110371;1253;41550;-62
2022/02/16 03:11:36;;;;;;;19.50;7.10;;;;;0.70;97525.80;;;;110725;1252;41163;-60
2022/02/16 03:14:06;;;;;;;;;;;;;0.70;97525.40;;;;110636;1253;41449;-62
2022/02/16 03:16:39;;;;;;;17.40;7.80;;;;;0.70;97533.00;;;;110712;1251;41248;-66
2022/02/16 03:19:10;;;;;;;13.30;6.00;;;;;0.60;97539.60;;;;110536;1253;41160;-62
2022/02/16 03:21:41;;;;;;;16.10;7.30;;;;;0.60;97530.60;;;;110608;1252;41165;-57
2022/02/16 03:24:11;;;;;;;15.90;6.90;;;;;0.60;97525.60;;;;110702;1251;42077;-58
2022/02/16 03:26:43;;;;;;;15.20;6.00;;;;;0.58;97525.00;;;;110540;1253;42383;-57
2022/02/16 03:29:13;;;;;;;15.30;6.50;;;;;0.50;97518.00;;;;110585;1253;41159;-58
2022/02/16 03:31:52;;;;;;;13.50;6.50;;;;;0.50;97519.00;;;;110604;1252;41904;-58
2022/02/16 03:34:22;;;;;;;14.80;6.70;;;;;0.50;97518.20;;;;110819;1251;41137;-57
2022/02/16 03:36:52;;;;;;;15.90;6.30;;;;;0.46;97513.80;;;;110528;1253;41147;-57
2022/02/16 03:39:22;;;;;;;12.40;5.60;;;;;0.40;97506.00;;;;110533;1252;41607;-59
2022/02/16 03:41:52;;;;;;;12.50;5.30;;;;;0.40;97515.40;;;;110525;1253;41155;-58
2022/02/16 03:44:23;;;;;;;11.30;5.20;;;;;0.40;97519.40;;;;110489;1253;41156;-57
2022/02/16 03:46:55;;;;;;;12.30;5.80;;;;;0.40;97520.20;;;;110441;1253;42006;-58
2022/02/16 03:49:25;;;;;;;12.40;5.40;;;;;0.40;97519.80;;;;110533;1253;41645;-58
2022/02/16 03:51:58;;;;;;;11.90;5.30;;;;;0.48;97518.00;;;;110570;1253;41261;-58
2022/02/16 03:54:28;;;;;;;14.90;5.60;;;;;0.50;97511.80;;;;110600;1253;41261;-62
2022/02/16 03:56:58;;;;;;;14.10;5.80;;;;;0.50;97503.00;;;;110575;1253;41172;-60
2022/02/16 03:59:28;;;;;;;13.00;5.60;;;;;0.50;97493.20;;;;110539;1253;41611;-64
2022/02/16 04:02:25;;;;;;;12.30;5.60;;;;;0.60;97500.00;;;;110421;1253;41283;-58
2022/02/16 04:04:55;;;;;;;14.10;5.90;;;;;0.60;97496.60;;;;110816;1251;41197;-58
2022/02/16 04:07:25;;;;;;;16.00;6.00;;;;;0.60;97495.20;;;;110505;1253;41197;-59
2022/02/16 04:09:55;;;;;;;13.50;6.20;;;;;0.62;97493.60;;;;110578;1252;41156;-59
2022/02/16 04:12:26;;;;;;;15.60;6.70;;;;;0.62;97492.60;;;;110733;1250;42408;-63
2022/02/16 04:14:58;;;;;;;10.90;5.20;;;;;0.64;97488.00;;;;110413;1251;41147;-62
2022/02/16 04:17:30;;;;;;;14.40;5.90;;;;;0.62;97493.60;;;;110571;1253;41267;-64
2022/02/16 04:20:04;;;;;;;15.70;6.50;;;;;0.68;97495.80;;;;110522;1253;41517;-64
2022/02/16 04:22:41;;;;;;;12.00;5.60;;;;;0.68;97499.80;;;;110631;1253;41140;-60
2022/02/16 04:25:14;;;;;;;13.20;6.10;;;;;0.68;97500.20;;;;110528;1253;41159;-63
2022/02/16 04:27:46;;;;;;;12.00;5.20;;;;;0.66;97508.40;;;;110536;1253;41156;-59
2022/02/16 04:30:19;;;;;;;14.10;5.90;;;;;0.70;97514.20;;;;110595;1253;41153;-62
2022/02/16 04:32:50;;;;;;;11.50;5.70;;;;;0.68;97507.80;;;;110594;1251;41168;-62
2022/02/16 04:35:24;;;;;;;14.20;5.60;;;;;0.70;97513.40;;;;110592;1253;41248;-62
2022/02/16 04:38:01;;;;;;;14.10;6.30;;;;;0.70;97518.00;;;;110417;1253;41260;-66
2022/02/16 04:40:34;;;;;;;12.70;5.80;;;;;0.70;97517.80;;;;110451;1253;41208;-62
2022/02/16 04:43:06;;;;;;;14.40;7.00;;;;;0.66;97512.40;;;;110411;1251;41178;-62
2022/02/16 04:45:41;;;;;;;14.60;6.30;;;;;0.70;97521.00;;;;110304;1253;41187;-63
2022/02/16 04:48:20;;;;;;;13.20;6.00;;;;;0.60;97525.20;;;;110461;1253;41623;-64
2022/02/16 04:50:53;;;;;;;14.90;6.80;;;;;0.60;97529.40;;;;110348;1253;41164;-61
2022/02/16 04:53:27;;;;;;;15.60;7.10;;;;;0.60;97528.40;;;;110593;1253;41142;-64
2022/02/16 04:56:02;;;;;;;14.10;7.00;;;;;0.58;97521.80;;;;110563;1253;42020;-62
2022/02/16 04:58:35;;;;;;;15.10;6.60;;;;;0.50;97520.60;;;;110578;1254;41257;-60
2022/02/16 05:01:20;;;;;;;14.80;6.50;;;;;0.50;97525.60;;;;110439;1253;41278;-62
2022/02/16 05:03:55;;;;;;;13.20;6.20;;;;;0.50;97523.60;;;;110399;1253;41267;-62
2022/02/16 05:06:28;;;;;;;14.30;6.50;;;;;0.40;97532.40;;;;110468;1253;41019;-61
2022/02/16 05:09:05;;;;;;;14.30;5.80;;;;;0.40;97530.80;;;;110408;1253;41162;-60
2022/02/16 05:11:42;;;;;;;16.50;6.60;;;;;0.40;97530.80;;;;110409;1253;41262;-67
2022/02/16 05:14:14;;;;;;;17.10;7.20;;;;;0.40;97530.20;;;;110372;1253;41149;-66
2022/02/16 05:16:54;;;;;;;16.50;7.00;;;;;0.40;97531.60;;;;110155;1255;41284;-58
2022/02/16 05:19:27;;;;;;;15.30;7.20;;;;;0.40;97541.00;;;;110319;1253;41170;-64
2022/02/16 05:21:58;;;;;;;14.20;6.80;;;;;0.32;97548.20;;;;110719;1253;41186;-63
2022/02/16 05:24:34;;;;;;;14.80;7.40;;;;;0.30;97552.20;;;;110537;1251;41272;-63
2022/02/16 05:27:08;;;;;;;16.10;7.60;;;;;0.30;97548.00;;;;110455;1251;42114;-63
2022/02/16 05:29:40;;;;;;;14.20;6.60;;;;;0.30;97542.40;;;;110503;1253;41708;-64
2022/02/16 05:32:16;;;;;;;14.70;6.30;;;;;0.30;97542.20;;;;110552;1253;41148;-63
2022/02/16 05:34:53;;;;;;;12.70;6.00;;;;;0.40;97545.80;;;;110306;1253;41284;-62
2022/02/16 05:37:28;;;;;;;15.30;5.70;;;;;0.40;97544.80;;;;110424;1253;41149;-62
2022/02/16 05:40:02;;;;;;;14.50;6.60;;;;;0.50;97540.80;;;;110532;1253;41458;-66
2022/02/16 05:42:36;;;;;;;12.70;5.10;;;;;0.58;97538.40;;;;110521;1253;41728;-61
2022/02/16 05:45:08;;;;;;;12.10;5.90;;;;;0.60;97536.40;;;;110455;1253;42027;-65
2022/02/16 05:47:41;;;;;;;13.20;6.00;;;;;0.70;97533.20;;;;110363;1253;41927;-57
2022/02/16 05:50:11;;;;;;;12.10;6.10;;;;;0.80;97537.00;;;;110620;1252;41265;-58
2022/02/16 05:52:41;;;;;;;16.40;6.60;;;;;0.90;97538.60;;;;110586;1253;41162;-62
2022/02/16 05:55:11;;;;;;;13.40;6.00;;;;;1.00;97539.60;;;;110512;1253;42495;-62
2022/02/16 05:57:40;;;;;;;14.60;6.60;;;;;1.00;97534.40;;;;110569;1253;41633;-63
2022/02/16 06:00:10;;;;;;;16.90;6.90;;;;;1.10;97522.00;;;;110497;1253;41159;-62
2022/02/16 06:02:40;;;;;;;16.00;7.20;;;;;1.20;97517.60;;;;110603;1253;41869;-59
2022/02/16 06:05:12;;;;;;;16.00;7.30;;;;;1.20;97515.40;;;;110441;1254;41194;-58
2022/02/16 06:07:41;;;;;;;14.50;6.20;;;;;1.30;97513.80;;;;110492;1253;41319;-56
2022/02/16 06:10:11;;;;;;;11.60;5.80;;;;;1.30;97519.80;;;;110518;1252;42200;-57
2022/02/16 06:12:41;;;;;;;15.50;5.60;;;;;1.32;97505.80;;;;110573;1253;41943;-58
2022/02/16 06:15:11;;;;;;;13.10;5.50;;;;;1.40;97505.20;;;;110555;1253;41156;-57
2022/02/16 06:17:42;;;;;;;13.60;6.40;;;;;1.42;97508.80;;;;110503;1253;41131;-57
2022/02/16 06:20:13;;;;;;;14.00;5.60;;;;;1.50;97508.80;;;;110481;1253;41191;-60
2022/02/16 06:22:43;;;;;;;11.20;5.80;;;;;1.50;97508.20;;;;110544;1253;41153;-59
2022/02/16 06:25:13;;;;;;;17.70;6.30;;;;;1.60;97514.60;;;;110625;1253;41143;-61
2022/02/16 06:27:45;;;;;;;12.70;6.50;;;;;1.60;97513.60;;;;110596;1253;41271;-60
2022/02/16 06:30:15;;;;;;;12.20;5.50;;;;;1.70;97509.60;;;;110455;1253;41810;-60
2022/02/16 06:32:54;;;;;;;12.40;5.40;;;;;1.78;97504.00;;;;110537;1253;42071;-61
2022/02/16 06:35:23;;;;;;;12.60;5.60;;;;;1.80;97503.40;;;;110568;1253;41613;-61
2022/02/16 06:37:53;;;;;;;15.70;6.50;;;;;1.90;97517.00;;;;110467;1253;41152;-61
2022/02/16 06:40:26;;;;;;;13.40;6.70;;;;;1.88;97517.80;;;;110457;1253;41731;-59
2022/02/16 06:42:56;;;;;;;12.40;5.40;;;;;1.90;97498.20;;;;110373;1253;41437;-58
2022/02/16 06:45:29;;;;;;;12.20;5.10;;;;;2.00;97496.80;;;;110448;1253;41254;-60
2022/02/16 06:48:00;;;;;;;12.60;5.30;;;;;2.10;97493.80;;;;110441;1253;42128;-56
2022/02/16 06:50:30;;;;;;;12.00;5.20;;;;;2.10;97486.60;;;;110663;1253;41602;-58
2022/02/16 06:53:10;;;;;;;16.20;7.50;;;;;2.20;97495.60;;;;110404;1253;41279;-58
2022/02/16 06:55:39;;;;;;;27.40;11.90;;;;;2.30;97496.60;;;;110441;1255;40752;-60
2022/02/16 06:58:09;;;;;;;26.60;12.60;;;;;2.36;97493.60;;;;110466;1253;41165;-61
2022/02/16 07:00:40;;;;;;;27.30;12.40;;;;;2.40;97486.20;;;;110589;1253;41163;-61
2022/02/16 07:03:10;;;;;;;28.10;12.70;;;;;2.48;97489.40;;;;110657;1253;41248;-62
2022/02/16 07:05:44;;;;;;;25.40;11.60;;;;;2.50;97489.00;;;;110501;1253;41258;-61
2022/02/16 07:08:17;;;;;;;19.70;8.50;;;;;2.60;97482.40;;;;110601;1253;41950;-60
2022/02/16 07:10:47;;;;;;;19.70;7.90;;;;;2.70;97480.20;;;;110504;1253;41162;-61
2022/02/16 07:13:16;;;;;;;14.90;7.00;;;;;2.70;97473.40;;;;110544;1253;41167;-61
2022/02/16 07:15:46;;;;;;;17.70;7.50;;;;;2.80;97470.00;;;;110587;1253;41165;-59
2022/02/16 07:18:15;;;;;;;24.00;12.10;;;;;2.80;97466.80;;;;110545;1253;41158;-62
2022/02/16 07:20:58;;;;;;;24.20;11.00;;;;;2.88;97461.60;;;;110498;1253;41261;-58
2022/02/16 07:23:28;;;;;;;27.40;13.70;;;;;2.94;97464.00;;;;110610;1253;41180;-58
2022/02/16 07:25:58;;;;;;;32.90;14.60;;;;;2.90;97467.00;;;;110706;1253;41170;-57
2022/02/16 07:28:32;;;;;;;27.30;12.50;;;;;3.00;97473.20;;;;110551;1254;41946;-60
2022/02/16 07:31:02;;;;;;;28.80;13.30;;;;;3.00;97469.80;;;;110599;1253;41308;-59
2022/02/16 07:33:31;;;;;;;37.90;16.60;;;;;3.10;97467.20;;;;110622;1253;41147;-59
2022/02/16 07:36:01;;;;;;;34.10;14.80;;;;;3.00;97469.60;;;;110515;1254;42015;-56
2022/02/16 07:38:31;;;;;;;36.00;17.50;;;;;2.94;97472.60;;;;110513;1253;41199;-60
2022/02/16 07:41:01;;;;;;;33.30;14.30;;;;;2.60;97478.40;;;;110547;1254;41482;-58
2022/02/16 07:43:36;;;;;;;22.60;9.40;;;;;2.70;97467.60;;;;110322;1254;41728;-58
2022/02/16 07:46:09;;;;;;;19.00;8.30;;;;;2.70;97456.60;;;;110596;1253;41384;-58
2022/02/16 07:48:42;;;;;;;21.90;9.90;;;;;2.90;97456.80;;;;110775;1250;41628;-60
2022/02/16 07:51:23;;;;;;;23.70;10.90;;;;;3.00;97456.60;;;;110710;1250;41160;-58
2022/02/16 07:54:12;;;;;;;23.60;9.90;;;;;3.20;97446.20;;;;110693;1251;41756;-59
2022/02/16 07:56:45;;;;;;;18.90;9.50;;;;;3.40;97447.00;;;;110557;1253;41568;-59
2022/02/16 07:59:17;;;;;;;19.30;9.40;;;;;3.66;97449.00;;;;110477;1253;41163;-58
2022/02/16 08:01:47;;;;;;;21.50;9.20;;;;;3.86;97444.00;;;;110550;1253;41294;-60
2022/02/16 08:04:17;;;;;;;18.10;8.50;;;;;4.10;97444.40;;;;110538;1251;41159;-59
2022/02/16 08:06:53;;;;;;;22.20;9.20;;;;;4.30;97449.20;;;;110627;1253;41151;-57
2022/02/16 08:09:23;;;;;;;19.50;8.70;;;;;4.50;97451.60;;;;110550;1253;41285;-59
2022/02/16 08:11:52;;;;;;;24.90;9.70;;;;;4.78;97450.80;;;;110500;1253;41273;-59
2022/02/16 08:14:22;;;;;;;18.80;9.10;;;;;5.00;97455.80;;;;110564;1252;41478;-59
2022/02/16 08:16:56;;;;;;;20.00;8.30;;;;;5.26;97459.60;;;;110675;1253;41255;-58
2022/02/16 08:19:25;;;;;;;;;;;;;5.44;97453.80;;;;110486;1251;41155;-58
2022/02/16 08:21:57;;;;;;;19.80;8.30;;;;;5.70;97450.00;;;;110814;1251;41133;-62
2022/02/16 08:24:28;;;;;;;16.60;7.60;;;;;5.90;97445.40;;;;110584;1253;42387;-62
2022/02/16 08:27:01;;;;;;;17.40;8.30;;;;;6.20;97440.60;;;;110465;1253;41615;-59
2022/02/16 08:29:33;;;;;;;23.00;9.20;;;;;6.48;97443.60;;;;110434;1253;41153;-61
2022/02/16 08:32:07;;;;;;;20.10;9.70;;;;;6.84;97437.00;;;;110609;1252;41273;-58
2022/02/16 08:35:00;;;;;;;23.30;10.90;;;;;7.28;97434.80;;;;110593;1251;42127;-63
2022/02/16 08:37:32;;;;;;;19.70;9.60;;;;;7.46;97432.40;;;;110647;1252;41185;-61
2022/02/16 08:40:03;;;;;;;23.10;11.30;;;;;7.60;97431.80;;;;110586;1253;41149;-62
2022/02/16 08:42:33;;;;;;;23.10;10.30;;;;;7.70;97427.60;;;;110708;1252;41342;-59
2022/02/16 08:45:02;;;;;;;22.10;9.90;;;;;7.80;97428.80;;;;110621;1251;41152;-59
2022/02/16 08:47:32;;;;;;;22.10;10.30;;;;;7.82;97425.60;;;;110688;1252;41266;-62
2022/02/16 08:50:01;;;;;;;19.70;9.40;;;;;7.92;97429.20;;;;110528;1253;41160;-60
2022/02/16 08:52:31;;;;;;;20.00;10.70;;;;;8.04;97420.80;;;;110725;1253;41184;-60
2022/02/16 08:55:00;;;;;;;22.40;12.90;;;;;8.10;97420.40;;;;110624;1253;41272;-60
2022/02/16 08:57:29;;;;;;;29.20;14.40;;;;;8.00;97419.40;;;;110632;1252;41150;-61
2022/02/16 08:59:58;;;;;;;32.40;15.90;;;;;8.14;97418.00;;;;110649;1253;41393;-63
2022/02/16 09:02:28;;;;;;;30.60;15.30;;;;;8.32;97417.00;;;;110647;1251;41763;-62
2022/02/16 09:05:00;;;;;;;32.60;17.00;;;;;8.50;97415.40;;;;110575;1253;41689;-63
2022/02/16 09:07:32;;;;;;;37.30;18.50;;;;;8.70;97415.20;;;;110569;1251;41145;-62
2022/02/16 09:10:05;;;;;;;39.80;18.70;;;;;8.90;97415.00;;;;110662;1251;41155;-62
2022/02/16 09:12:36;;;;;;;30.50;15.70;;;;;9.10;97414.40;;;;110556;1253;41143;-60
2022/02/16 09:15:06;;;;;;;31.50;15.40;;;;;9.44;97409.20;;;;110639;1253;41267;-59
2022/02/16 09:17:35;;;;;;;27.60;14.00;;;;;9.90;97414.80;;;;110632;1253;41904;-61
2022/02/16 09:20:06;;;;;;;21.90;11.20;;;;;10.06;97414.60;;;;110590;1253;41559;-60
2022/02/16 09:22:37;;;;;;;27.40;12.90;;;;;10.32;97405.80;;;;110557;1253;41900;-61
2022/02/16 09:25:07;;;;;;;25.20;10.30;;;;;11.64;97386.60;;;;110649;1253;41270;-58
2022/02/16 09:27:36;;;;;;;20.10;10.80;;;;;13.44;97385.40;;;;110564;1253;41458;-63
2022/02/16 09:30:07;;;;;;;16.70;8.20;;;;;14.38;97387.00;;;;110639;1253;41360;-60
2022/02/16 09:32:37;;;;;;;16.20;7.80;;;;;15.12;97386.40;;;;110603;1253;41265;-60
2022/02/16 09:35:07;;;;;;;13.00;6.10;;;;;15.64;97368.60;;;;110692;1253;42853;-60
2022/02/16 09:37:36;;;;;;;14.60;6.70;;;;;15.90;97372.20;;;;110540;1253;41162;-59
2022/02/16 09:40:06;;;;;;;14.10;6.30;;;;;15.78;97363.60;;;;110576;1253;41189;-59
2022/02/16 09:42:36;;;;;;;14.30;6.20;;;;;15.76;97364.20;;;;110516;1253;41162;-62
2022/02/16 09:45:07;;;;;;;11.90;5.50;;;;;15.90;97362.20;;;;110744;1251;41194;-60
2022/02/16 09:47:37;;;;;;;14.60;6.10;;;;;16.10;97356.20;;;;110743;1250;41261;-63
2022/02/16 09:50:11;;;;;;;14.20;6.50;;;;;16.10;97355.00;;;;110571;1253;41154;-63
2022/02/16 09:52:41;;;;;;;12.80;6.10;;;;;16.08;97351.40;;;;110606;1253;42382;-60
2022/02/16 09:55:11;;;;;;;15.60;6.90;;;;;15.90;97350.00;;;;110587;1253;41146;-60
2022/02/16 09:57:40;;;;;;;13.30;6.10;;;;;15.80;97348.80;;;;110713;1250;41675;-60
2022/02/16 10:00:12;;;;;;;13.30;6.50;;;;;15.64;97342.40;;;;110755;1253;41138;-59
2022/02/16 10:02:43;;;;;;;12.20;5.60;;;;;15.50;97341.20;;;;110602;1253;41138;-60
2022/02/16 10:05:13;;;;;;;;;;;;;15.48;97341.40;;;;110756;1252;41161;-60
2022/02/16 10:07:45;;;;;;;11.60;5.70;;;;;15.42;97336.20;;;;110752;1251;42250;-60
2022/02/16 10:10:23;;;;;;;12.30;5.60;;;;;15.40;97336.20;;;;110582;1253;41703;-59
2022/02/16 10:12:55;;;;;;;13.20;5.10;;;;;15.66;97321.40;;;;110751;1250;41153;-60
2022/02/16 10:15:26;;;;;;;12.10;5.10;;;;;16.56;97320.20;;;;110787;1250;41611;-61
2022/02/16 10:18:15;;;;;;;11.90;5.60;;;;;17.42;97301.60;;;;110705;1253;41723;-61
2022/02/16 10:20:45;;;;;;;13.90;5.40;;;;;18.34;97298.20;;;;110843;1251;41146;-59
2022/02/16 10:23:17;;;;;;;12.80;5.50;;;;;19.54;97294.60;;;;110678;1253;41163;-60
2022/02/16 10:25:50;;;;;;;15.70;6.30;;;;;21.22;97284.80;;;;110660;1253;41942;-60
2022/02/16 10:28:22;;;;;;;11.70;5.40;;;;;22.32;97280.60;;;;110619;1253;41944;-60
2022/02/16 10:30:55;;;;;;;;;;;;;23.36;97277.20;;;;110826;1252;42198;-62
2022/02/16 10:33:27;;;;;;;13.00;5.40;;;;;23.50;97277.00;;;;110784;1253;41351;-63
2022/02/16 10:36:08;;;;;;;14.10;5.90;;;;;23.22;97272.00;;;;110628;1253;41264;-63
2022/02/16 10:39:00;;;;;;;11.40;5.60;;;;;22.84;97272.20;;;;110498;1253;41942;-62
2022/02/16 10:41:42;;;;;;;13.00;5.00;;;;;22.10;97271.40;;;;110610;1252;41841;-60
2022/02/16 10:44:23;;;;;;;10.60;5.00;;;;;21.42;97270.20;;;;110768;1250;42085;-60
2022/02/16 10:47:09;;;;;;;11.60;5.20;;;;;20.90;97270.60;;;;110712;1253;41162;-63
2022/02/16 10:49:43;;;;;;;11.80;6.10;;;;;19.18;97274.20;;;;110751;1250;41939;-63
2022/02/16 10:52:21;;;;;;;14.20;5.50;;;;;18.78;97277.80;;;;110787;1253;42018;-60
2022/02/16 10:54:58;;;;;;;15.40;7.60;;;;;18.12;97280.80;;;;110717;1253;41270;-61
2022/02/16 10:57:29;;;;;;;16.00;7.80;;;;;16.48;97285.00;;;;110744;1252;41370;-61
2022/02/16 10:59:58;;;;;;;14.10;6.70;;;;;15.76;97283.60;;;;110615;1253;41641;-61
2022/02/16 11:02:28;;;;;;;14.60;7.20;;;;;15.60;97275.40;;;;110565;1253;42346;-61
2022/02/16 11:04:59;;;;;;;14.80;7.50;;;;;14.66;97277.40;;;;110574;1253;41156;-62
2022/02/16 11:07:29;;;;;;;19.90;6.90;;;;;14.06;97274.20;;;;110631;1251;41286;-59
2022/02/16 11:10:03;;;;;;;14.10;6.80;;;;;13.68;97274.80;;;;110546;1254;41946;-59
2022/02/16 11:12:32;;;;;;;14.40;6.60;;;;;13.32;97277.00;;;;110777;1250;41613;-60
2022/02/16 11:15:02;;;;;;;21.70;7.70;;;;;13.00;97276.20;;;;110572;1254;41734;-60
2022/02/16 11:17:31;;;;;;;16.90;7.70;;;;;12.70;97279.00;;;;110779;1253;41178;-61
2022/02/16 11:20:18;;;;;;;16.10;7.70;;;;;12.50;97277.60;;;;110761;1253;41395;-60
2022/02/16 11:22:49;;;;;;;17.80;7.30;;;;;12.30;97275.00;;;;110757;1251;41164;-59
2022/02/16 11:25:25;;;;;;;17.80;7.90;;;;;11.98;97275.20;;;;110620;1253;41605;-60
2022/02/16 11:28:00;;;;;;;16.20;7.30;;;;;11.98;97259.20;;;;110765;1253;42373;-59
2022/02/16 11:30:35;;;;;;;17.30;7.90;;;;;11.92;97264.20;;;;110738;1251;41453;-60
2022/02/16 11:33:24;;;;;;;17.20;8.70;;;;;11.70;97257.60;;;;110546;1251;42374;-61
2022/02/16 11:36:00;;;;;;;17.40;7.50;;;;;11.60;97257.60;;;;110713;1253;41564;-60
2022/02/16 11:38:40;;;;;;;25.60;8.50;;;;;11.62;97249.20;;;;110728;1253;40837;-59
2022/02/16 11:41:27;;;;;;;20.70;8.30;;;;;11.54;97243.00;;;;110761;1251;41961;-59
2022/02/16 11:44:00;;;;;;;17.40;7.90;;;;;11.50;97241.20;;;;110529;1253;41131;-59
2022/02/16 11:46:56;;;;;;;16.40;7.40;;;;;11.50;97240.20;;;;110738;1251;41158;-60
2022/02/16 11:49:30;;;;;;;18.30;8.30;;;;;11.36;97231.60;;;;110766;1253;41198;-60
2022/02/16 11:52:37;;;;;;;19.70;8.20;;;;;11.40;97222.60;;;;110626;1253;41638;-58
2022/02/16 11:55:23;;;;;;;23.90;10.50;;;;;11.40;97223.00;;;;110577;1253;41155;-60
2022/02/16 11:57:54;;;;;;;22.20;9.00;;;;;11.20;97223.40;;;;110592;1254;41134;-62
2022/02/16 12:00:38;;;;;;;21.60;10.70;;;;;11.30;97219.00;;;;110558;1253;42544;-63
2022/02/16 12:03:07;;;;;;;21.60;9.90;;;;;11.18;97217.80;;;;110713;1251;41202;-61
2022/02/16 12:05:56;;;;;;;25.60;9.80;;;;;11.16;97214.20;;;;110764;1251;42193;-62
2022/02/16 12:08:52;;;;;;;27.70;10.30;;;;;11.10;97216.40;;;;110741;1251;42082;-59
2022/02/16 12:11:28;;;;;;;22.70;10.30;;;;;11.04;97215.60;;;;110639;1253;41339;-60
2022/02/16 12:14:04;;;;;;;24.70;11.80;;;;;10.86;97208.60;;;;110686;1251;41144;-60
2022/02/16 12:16:42;;;;;;;27.90;11.50;;;;;10.80;97207.80;;;;110789;1253;41166;-58
2022/02/16 12:19:16;;;;;;;28.50;12.70;;;;;10.72;97212.80;;;;110779;1251;41715;-60
2022/02/16 12:21:47;;;;;;;28.50;12.30;;;;;10.60;97212.00;;;;110655;1252;41630;-60
2022/02/16 12:24:19;;;;;;;28.80;12.80;;;;;10.54;97211.40;;;;110739;1251;41173;-60
2022/02/16 12:26:51;;;;;;;27.10;13.10;;;;;10.50;97210.00;;;;110744;1251;41257;-58
2022/02/16 12:29:25;;;;;;;26.20;12.00;;;;;10.44;97208.60;;;;110777;1251;41139;-60
2022/02/16 12:32:08;;;;;;;22.70;11.70;;;;;10.44;97214.00;;;;110710;1250;41284;-59
2022/02/16 12:34:37;;;;;;;22.10;12.00;;;;;10.40;97211.40;;;;110640;1251;42427;-60